createdAt,value
2018-02-27T00:00:20.422Z,-4.13
2018-02-27T00:01:20.418Z,-4.20
2018-02-27T00:02:20.334Z,-4.14
2018-02-27T00:03:20.309Z,-4.25
2018-02-27T00:04:20.250Z,-4.32
2018-02-27T00:05:20.200Z,-4.31
2018-02-27T00:06:20.208Z,-4.30
2018-02-27T00:07:20.112Z,-4.30
2018-02-27T00:08:20.101Z,-4.22
2018-02-27T00:09:20.041Z,-4.32
2018-02-27T00:10:19.981Z,-4.30
2018-02-27T00:11:19.965Z,-4.24
2018-02-27T00:12:19.895Z,-4.27
2018-02-27T00:13:19.860Z,-4.24
2018-02-27T00:14:19.807Z,-4.31
2018-02-27T00:15:19.761Z,-4.25
2018-02-27T00:16:19.799Z,-4.32
2018-02-27T00:17:19.749Z,-4.21
2018-02-27T00:18:19.630Z,-4.24
2018-02-27T00:19:19.608Z,-4.28
2018-02-27T00:20:19.538Z,-4.30
2018-02-27T00:21:19.514Z,-4.31
2018-02-27T00:22:19.502Z,-4.27
2018-02-27T00:23:19.435Z,-4.31
2018-02-27T00:24:19.408Z,-4.25
2018-02-27T00:25:19.322Z,-4.28
2018-02-27T00:26:19.294Z,-4.31
2018-02-27T00:27:19.280Z,-4.27
2018-02-27T00:28:19.190Z,-4.31
2018-02-27T00:29:19.160Z,-4.30
2018-02-27T00:30:19.159Z,-4.32
2018-02-27T00:31:19.069Z,-4.27
2018-02-27T00:32:19.073Z,-4.27
2018-02-27T00:33:18.974Z,-4.34
2018-02-27T00:34:18.931Z,-4.32
2018-02-27T00:35:18.892Z,-4.39
2018-02-27T00:36:18.840Z,-4.34
2018-02-27T00:37:18.818Z,-4.41
2018-02-27T00:38:18.804Z,-4.42
2018-02-27T00:39:18.725Z,-4.35
2018-02-27T00:40:18.662Z,-4.35
2018-02-27T00:41:18.632Z,-4.34
2018-02-27T00:42:18.593Z,-4.41
2018-02-27T00:43:18.547Z,-4.34
2018-02-27T00:44:18.489Z,-4.27
2018-02-27T00:45:18.465Z,-4.28
2018-02-27T00:46:18.420Z,-4.28
2018-02-27T00:47:18.359Z,-4.25
2018-02-27T00:48:18.345Z,-4.22
2018-02-27T00:49:18.281Z,-4.24
2018-02-27T00:50:18.223Z,-4.32
2018-02-27T00:51:18.185Z,-4.24
2018-02-27T00:52:18.148Z,-4.25
2018-02-27T00:53:18.130Z,-4.25
2018-02-27T00:54:18.050Z,-4.20
2018-02-27T00:55:18.015Z,-4.13
2018-02-27T00:56:17.993Z,-4.24
2018-02-27T00:57:17.928Z,-4.25
2018-02-27T00:58:17.943Z,-4.35
2018-02-27T00:59:17.838Z,-4.28
2018-02-27T01:00:17.798Z,-4.24
2018-02-27T01:01:17.758Z,-4.31
2018-02-27T01:02:17.738Z,-4.30
2018-02-27T01:03:17.707Z,-4.32
2018-02-27T01:04:17.610Z,-4.30
2018-02-27T01:05:17.620Z,-4.35
2018-02-27T01:06:17.536Z,-4.35
2018-02-27T01:07:17.477Z,-4.41
2018-02-27T01:08:17.449Z,-4.35
2018-02-27T01:09:17.388Z,-4.35
2018-02-27T01:10:17.430Z,-4.31
2018-02-27T01:11:17.310Z,-4.34
2018-02-27T01:12:17.270Z,-4.34
2018-02-27T01:13:17.250Z,-4.39
2018-02-27T01:14:17.170Z,-4.39
2018-02-27T01:15:17.146Z,-4.41
2018-02-27T01:16:17.107Z,-4.39
2018-02-27T01:17:17.036Z,-4.41
2018-02-27T01:18:17.037Z,-4.48
2018-02-27T01:19:16.950Z,-4.41
2018-02-27T01:20:16.903Z,-4.42
2018-02-27T01:21:16.860Z,-4.39
2018-02-27T01:22:16.817Z,-4.38
2018-02-27T01:23:16.836Z,-4.39
2018-02-27T01:24:16.773Z,-4.39
2018-02-27T01:25:16.686Z,-4.35
2018-02-27T01:26:16.715Z,-4.39
2018-02-27T01:27:16.598Z,-4.35
2018-02-27T01:28:16.571Z,-4.39
2018-02-27T01:29:16.546Z,-4.41
2018-02-27T01:30:16.470Z,-4.50
2018-02-27T01:31:16.428Z,-4.43
2018-02-27T01:32:16.393Z,-4.55
2018-02-27T01:33:16.369Z,-4.60
2018-02-27T01:34:16.303Z,-4.67
2018-02-27T01:35:16.254Z,-4.69
2018-02-27T01:36:16.214Z,-4.63
2018-02-27T01:37:16.153Z,-4.59
2018-02-27T01:38:16.123Z,-4.53
2018-02-27T01:39:16.105Z,-4.67
2018-02-27T01:40:16.033Z,-4.61
2018-02-27T01:41:15.986Z,-4.70
2018-02-27T01:42:15.986Z,-4.63
2018-02-27T01:43:15.907Z,-4.64
2018-02-27T01:44:15.863Z,-4.69
2018-02-27T01:45:15.833Z,-4.61
2018-02-27T01:46:16.078Z,-4.67
2018-02-27T01:47:15.737Z,-4.73
2018-02-27T01:48:15.686Z,-4.67
2018-02-27T01:49:15.673Z,-4.64
2018-02-27T01:50:15.587Z,-4.71
2018-02-27T01:51:15.558Z,-4.66
2018-02-27T01:52:15.494Z,-4.69
2018-02-27T01:53:15.455Z,-4.66
2018-02-27T01:54:15.465Z,-4.66
2018-02-27T01:55:15.377Z,-4.66
2018-02-27T01:56:15.318Z,-4.82
2018-02-27T01:57:15.284Z,-4.78
2018-02-27T01:58:15.245Z,-4.79
2018-02-27T01:59:15.190Z,-4.77
2018-02-27T02:00:15.144Z,-4.88
2018-02-27T02:01:15.116Z,-4.85
2018-02-27T02:02:15.089Z,-4.82
2018-02-27T02:03:15.027Z,-4.88
2018-02-27T02:04:14.967Z,-4.92
2018-02-27T02:05:14.995Z,-4.89
2018-02-27T02:06:14.890Z,-4.98
2018-02-27T02:07:14.840Z,-4.98
2018-02-27T02:08:14.788Z,-5.05
2018-02-27T02:09:14.756Z,-4.98
2018-02-27T02:10:14.726Z,-5.03
2018-02-27T02:11:14.655Z,-4.96
2018-02-27T02:12:14.646Z,-4.96
2018-02-27T02:13:14.565Z,-5.06
2018-02-27T02:14:14.535Z,-5.06
2018-02-27T02:15:14.530Z,-5.09
2018-02-27T02:16:14.435Z,-5.08
2018-02-27T02:17:14.410Z,-5.03
2018-02-27T02:18:14.346Z,-5.17
2018-02-27T02:19:14.317Z,-5.10
2018-02-27T02:20:14.257Z,-5.10
2018-02-27T02:21:14.234Z,-5.13
2018-02-27T02:22:14.189Z,-5.17
2018-02-27T02:23:14.165Z,-5.21
2018-02-27T02:24:14.148Z,-5.08
2018-02-27T02:25:14.071Z,-5.21
2018-02-27T02:26:14.017Z,-5.25
2018-02-27T02:27:13.949Z,-5.08
2018-02-27T02:28:13.928Z,-5.06
2018-02-27T02:29:13.863Z,-5.22
2018-02-27T02:30:13.816Z,-5.10
2018-02-27T02:31:13.799Z,-5.06
2018-02-27T02:32:13.728Z,-5.21
2018-02-27T02:33:13.701Z,-5.25
2018-02-27T02:34:13.697Z,-5.33
2018-02-27T02:35:13.604Z,-5.29
2018-02-27T02:36:13.576Z,-5.27
2018-02-27T02:37:13.517Z,-5.38
2018-02-27T02:38:13.465Z,-5.28
2018-02-27T02:39:13.424Z,-5.35
2018-02-27T02:40:13.393Z,-5.33
2018-02-27T02:41:13.325Z,-5.42
2018-02-27T02:42:13.323Z,-5.43
2018-02-27T02:43:13.239Z,-5.43
2018-02-27T02:44:13.231Z,-5.45
2018-02-27T02:45:13.177Z,-5.47
2018-02-27T02:46:13.111Z,-5.40
2018-02-27T02:47:13.069Z,-5.43
2018-02-27T02:48:13.019Z,-5.49
2018-02-27T02:49:12.980Z,-5.56
2018-02-27T02:50:12.928Z,-5.54
2018-02-27T02:51:12.888Z,-5.54
2018-02-27T02:52:12.858Z,-5.53
2018-02-27T02:53:13.955Z,-5.49
2018-02-27T02:54:14.455Z,-5.40
2018-02-27T02:55:12.737Z,-5.49
2018-02-27T02:56:12.675Z,-5.46
2018-02-27T02:57:12.627Z,-5.54
2018-02-27T02:58:12.569Z,-5.61
2018-02-27T02:59:12.554Z,-5.57
2018-02-27T03:00:12.520Z,-5.74
2018-02-27T03:01:12.466Z,-5.56
2018-02-27T03:02:12.398Z,-5.53
2018-02-27T03:03:12.389Z,-5.60
2018-02-27T03:04:12.307Z,-5.57
2018-02-27T03:05:12.304Z,-5.67
2018-02-27T03:06:12.220Z,-5.58
2018-02-27T03:07:12.185Z,-5.71
2018-02-27T03:08:12.135Z,-5.63
2018-02-27T03:09:12.080Z,-5.54
2018-02-27T03:10:12.066Z,-5.57
2018-02-27T03:11:12.025Z,-5.57
2018-02-27T03:12:11.949Z,-5.56
2018-02-27T03:13:11.904Z,-5.66
2018-02-27T03:14:11.898Z,-5.63
2018-02-27T03:15:11.867Z,-5.67
2018-02-27T03:16:11.798Z,-5.78
2018-02-27T03:17:11.737Z,-5.71
2018-02-27T03:18:11.699Z,-5.68
2018-02-27T03:19:11.699Z,-5.74
2018-02-27T03:20:11.655Z,-5.79
2018-02-27T03:21:11.568Z,-5.76
2018-02-27T03:22:11.522Z,-5.71
2018-02-27T03:23:11.459Z,-5.81
2018-02-27T03:24:11.415Z,-5.79
2018-02-27T03:25:11.376Z,-5.84
2018-02-27T03:26:11.372Z,-5.76
2018-02-27T03:27:11.279Z,-5.79
2018-02-27T03:28:11.265Z,-5.86
2018-02-27T03:29:11.192Z,-5.84
2018-02-27T03:30:11.165Z,-5.76
2018-02-27T03:31:11.124Z,-5.85
2018-02-27T03:32:11.076Z,-5.89
2018-02-27T03:33:11.025Z,-5.84
2018-02-27T03:34:10.976Z,-5.82
2018-02-27T03:35:10.929Z,-5.85
2018-02-27T03:36:10.902Z,-5.81
2018-02-27T03:37:10.860Z,-5.96
2018-02-27T03:38:10.791Z,-5.90
2018-02-27T03:39:10.747Z,-5.99
2018-02-27T03:40:10.717Z,-5.90
2018-02-27T03:41:10.695Z,-5.90
2018-02-27T03:42:10.614Z,-5.89
2018-02-27T03:43:10.580Z,-5.90
2018-02-27T03:44:10.524Z,-6.00
2018-02-27T03:45:10.553Z,-6.02
2018-02-27T03:46:10.463Z,-5.97
2018-02-27T03:47:10.397Z,-6.03
2018-02-27T03:48:10.940Z,-6.00
2018-02-27T03:49:10.306Z,-6.03
2018-02-27T03:50:10.297Z,-6.00
2018-02-27T03:51:10.245Z,-6.10
2018-02-27T03:52:10.174Z,-6.05
2018-02-27T03:53:10.145Z,-6.00
2018-02-27T03:54:10.100Z,-6.02
2018-02-27T03:55:10.073Z,-6.00
2018-02-27T03:56:09.987Z,-6.03
2018-02-27T03:57:09.972Z,-6.13
2018-02-27T03:58:09.942Z,-6.08
2018-02-27T03:59:09.860Z,-6.15
2018-02-27T04:00:09.877Z,-6.11
2018-02-27T04:01:09.789Z,-6.18
2018-02-27T04:02:09.728Z,-6.17
2018-02-27T04:03:09.686Z,-6.14
2018-02-27T04:04:09.632Z,-6.23
2018-02-27T04:05:09.583Z,-6.21
2018-02-27T04:06:09.588Z,-6.18
2018-02-27T04:07:09.510Z,-6.23
2018-02-27T04:08:09.495Z,-6.23
2018-02-27T04:09:09.438Z,-6.20
2018-02-27T04:10:09.364Z,-6.15
2018-02-27T04:11:09.318Z,-6.14
2018-02-27T04:12:09.331Z,-6.28
2018-02-27T04:13:09.230Z,-6.24
2018-02-27T04:14:09.216Z,-6.26
2018-02-27T04:15:09.145Z,-6.35
2018-02-27T04:16:09.087Z,-6.31
2018-02-27T04:17:09.064Z,-6.36
2018-02-27T04:18:09.011Z,-6.36
2018-02-27T04:19:08.993Z,-6.44
2018-02-27T04:20:08.918Z,-6.41
2018-02-27T04:21:08.881Z,-6.36
2018-02-27T04:22:08.836Z,-6.36
2018-02-27T04:23:08.850Z,-6.39
2018-02-27T04:24:08.759Z,-6.35
2018-02-27T04:25:08.740Z,-6.44
2018-02-27T04:26:08.687Z,-6.44
2018-02-27T04:27:08.623Z,-6.46
2018-02-27T04:28:08.574Z,-6.32
2018-02-27T04:29:08.525Z,-6.39
2018-02-27T04:30:08.462Z,-6.44
2018-02-27T04:31:08.426Z,-6.50
2018-02-27T04:32:08.384Z,-6.47
2018-02-27T04:33:08.388Z,-6.50
2018-02-27T04:34:08.318Z,-6.50
2018-02-27T04:35:08.257Z,-6.53
2018-02-27T04:36:08.202Z,-6.54
2018-02-27T04:37:08.190Z,-6.58
2018-02-27T04:38:08.139Z,-6.49
2018-02-27T04:39:08.078Z,-6.49
2018-02-27T04:40:08.056Z,-6.56
2018-02-27T04:41:07.976Z,-6.58
2018-02-27T04:42:07.973Z,-6.52
2018-02-27T04:43:07.893Z,-6.63
2018-02-27T04:44:07.846Z,-6.54
2018-02-27T04:45:07.822Z,-6.56
2018-02-27T04:46:07.755Z,-6.65
2018-02-27T04:47:07.737Z,-6.68
2018-02-27T04:48:07.675Z,-6.58
2018-02-27T04:49:07.668Z,-6.66
2018-02-27T04:50:07.701Z,-6.69
2018-02-27T04:51:07.549Z,-6.68
2018-02-27T04:52:07.530Z,-6.63
2018-02-27T04:53:07.449Z,-6.60
2018-02-27T04:54:07.397Z,-6.71
2018-02-27T04:55:07.365Z,-6.65
2018-02-27T04:56:07.346Z,-6.65
2018-02-27T04:57:07.321Z,-6.68
2018-02-27T04:58:07.252Z,-6.75
2018-02-27T04:59:07.204Z,-6.81
2018-02-27T05:00:07.145Z,-6.76
2018-02-27T05:01:07.097Z,-6.84
2018-02-27T05:02:07.068Z,-6.87
2018-02-27T05:03:07.057Z,-6.81
2018-02-27T05:04:06.948Z,-6.86
2018-02-27T05:05:06.935Z,-6.86
2018-02-27T05:06:06.882Z,-6.86
2018-02-27T05:07:06.815Z,-6.87
2018-02-27T05:08:06.809Z,-6.94
2018-02-27T05:09:06.723Z,-6.87
2018-02-27T05:10:06.685Z,-6.86
2018-02-27T05:11:06.667Z,-6.99
2018-02-27T05:12:06.630Z,-7.00
2018-02-27T05:13:06.571Z,-7.00
2018-02-27T05:14:06.515Z,-6.97
2018-02-27T05:15:07.471Z,-6.94
2018-02-27T05:16:06.461Z,-7.00
2018-02-27T05:17:06.367Z,-7.05
2018-02-27T05:18:06.352Z,-6.96
2018-02-27T05:19:06.319Z,-7.05
2018-02-27T05:20:06.248Z,-7.11
2018-02-27T05:21:06.186Z,-6.99
2018-02-27T05:22:06.153Z,-7.03
2018-02-27T05:23:06.148Z,-7.04
2018-02-27T05:24:06.055Z,-7.03
2018-02-27T05:25:06.007Z,-6.99
2018-02-27T05:26:06.064Z,-7.04
2018-02-27T05:27:05.921Z,-7.11
2018-02-27T05:28:05.870Z,-7.14
2018-02-27T05:29:05.849Z,-6.99
2018-02-27T05:30:05.789Z,-7.04
2018-02-27T05:31:05.738Z,-7.04
2018-02-27T05:32:05.705Z,-7.05
2018-02-27T05:33:05.660Z,-6.99
2018-02-27T05:34:05.610Z,-7.04
2018-02-27T05:35:05.595Z,-7.05
2018-02-27T05:36:05.536Z,-7.04
2018-02-27T05:37:05.470Z,-7.08
2018-02-27T05:38:05.422Z,-7.13
2018-02-27T05:39:05.376Z,-7.11
2018-02-27T05:40:05.334Z,-7.04
2018-02-27T05:41:05.290Z,-7.03
2018-02-27T05:42:05.241Z,-7.07
2018-02-27T05:43:05.242Z,-7.07
2018-02-27T05:44:05.154Z,-7.05
2018-02-27T05:45:05.108Z,-7.03
2018-02-27T05:46:05.063Z,-7.07
2018-02-27T05:47:05.023Z,-7.15
2018-02-27T05:48:04.973Z,-7.21
2018-02-27T05:49:04.928Z,-7.21
2018-02-27T05:50:04.884Z,-7.21
2018-02-27T05:51:04.836Z,-7.03
2018-02-27T05:52:04.791Z,-7.03
2018-02-27T05:53:04.748Z,-7.10
2018-02-27T05:54:04.703Z,-7.07
2018-02-27T05:55:04.659Z,-7.04
2018-02-27T05:56:04.612Z,-7.07
2018-02-27T05:57:04.567Z,-7.05
2018-02-27T05:58:04.524Z,-7.03
2018-02-27T05:59:04.477Z,-7.03
2018-02-27T06:00:04.431Z,-7.03
2018-02-27T06:01:04.500Z,-7.03
2018-02-27T06:02:04.343Z,-7.04
2018-02-27T06:03:04.296Z,-7.07
2018-02-27T06:04:04.254Z,-7.05
2018-02-27T06:05:04.207Z,-7.08
2018-02-27T06:06:04.162Z,-7.15
2018-02-27T06:07:04.117Z,-7.04
2018-02-27T06:08:04.074Z,-7.03
2018-02-27T06:09:04.027Z,-7.00
2018-02-27T06:10:03.983Z,-7.04
2018-02-27T06:11:03.942Z,-7.03
2018-02-27T06:12:03.892Z,-7.04
2018-02-27T06:13:03.886Z,-7.08
2018-02-27T06:14:03.802Z,-7.08
2018-02-27T06:15:03.761Z,-7.05
2018-02-27T06:16:03.713Z,-6.96
2018-02-27T06:17:03.669Z,-6.96
2018-02-27T06:18:03.819Z,-6.93
2018-02-27T06:19:03.577Z,-6.99
2018-02-27T06:20:03.534Z,-6.94
2018-02-27T06:21:03.487Z,-7.03
2018-02-27T06:22:03.443Z,-7.05
2018-02-27T06:23:03.421Z,-7.04
2018-02-27T06:24:03.355Z,-7.03
2018-02-27T06:25:03.309Z,-7.04
2018-02-27T06:26:03.262Z,-7.07
2018-02-27T06:27:03.221Z,-7.05
2018-02-27T06:28:03.175Z,-6.99
2018-02-27T06:29:03.128Z,-7.07
2018-02-27T06:30:03.171Z,-7.04
2018-02-27T06:31:03.038Z,-7.07
2018-02-27T06:32:02.994Z,-6.99
2018-02-27T06:33:02.948Z,-6.96
2018-02-27T06:34:02.906Z,-6.96
2018-02-27T06:35:02.859Z,-6.99
2018-02-27T06:36:02.816Z,-6.99
2018-02-27T06:37:02.770Z,-7.00
2018-02-27T06:38:02.721Z,-6.92
2018-02-27T06:39:02.679Z,-6.93
2018-02-27T06:40:02.631Z,-6.89
2018-02-27T06:41:03.398Z,-6.75
2018-02-27T06:42:02.542Z,-6.79
2018-02-27T06:43:02.499Z,-6.78
2018-02-27T06:44:02.457Z,-6.69
2018-02-27T06:45:02.416Z,-6.69
2018-02-27T06:46:02.364Z,-6.61
2018-02-27T06:47:02.346Z,-6.56
2018-02-27T06:48:02.274Z,-6.54
2018-02-27T06:49:02.232Z,-6.49
2018-02-27T06:50:02.186Z,-6.46
2018-02-27T06:51:02.144Z,-6.23
2018-02-27T06:52:02.124Z,-6.18
2018-02-27T06:53:02.055Z,-6.15
2018-02-27T06:54:02.011Z,-6.00
2018-02-27T06:55:01.963Z,-6.00
2018-02-27T06:56:01.920Z,-5.92
2018-02-27T06:57:01.877Z,-5.90
2018-02-27T06:58:01.833Z,-5.90
2018-02-27T06:59:01.790Z,-5.86
2018-02-27T07:00:01.745Z,-5.85
2018-02-27T07:01:01.698Z,-5.71
2018-02-27T07:02:01.657Z,-5.68
2018-02-27T07:03:01.611Z,-5.63
2018-02-27T07:04:01.568Z,-5.57
2018-02-27T07:05:01.524Z,-5.57
2018-02-27T07:06:01.483Z,-5.46
2018-02-27T07:07:01.438Z,-5.42
2018-02-27T07:08:01.395Z,-5.31
2018-02-27T07:09:01.354Z,-5.24
2018-02-27T07:10:01.309Z,-5.25
2018-02-27T07:11:01.266Z,-5.19
2018-02-27T07:12:01.222Z,-4.96
2018-02-27T07:13:01.181Z,-4.87
2018-02-27T07:14:01.138Z,-4.85
2018-02-27T07:15:01.093Z,-4.82
2018-02-27T07:16:01.048Z,-4.82
2018-02-27T07:17:01.009Z,-4.60
2018-02-27T07:18:00.968Z,-4.63
2018-02-27T07:19:00.931Z,-4.52
2018-02-27T07:20:00.882Z,-4.46
2018-02-27T07:21:00.840Z,-4.35
2018-02-27T07:22:00.800Z,-4.31
2018-02-27T07:23:00.758Z,-4.24
2018-02-27T07:24:00.718Z,-4.14
2018-02-27T07:25:00.676Z,-4.06
2018-02-27T07:26:00.634Z,-4.07
2018-02-27T07:27:00.589Z,-4.03
2018-02-27T07:28:00.550Z,-3.86
2018-02-27T07:29:00.526Z,-3.70
2018-02-27T07:30:00.468Z,-3.88
2018-02-27T07:31:00.426Z,-3.64
2018-02-27T07:32:00.386Z,-3.61
2018-02-27T07:33:00.346Z,-3.41
2018-02-27T07:34:00.306Z,-3.52
2018-02-27T07:35:00.263Z,-3.23
2018-02-27T07:36:00.223Z,-3.31
2018-02-27T07:37:00.185Z,-3.34
2018-02-27T07:38:00.171Z,-3.15
2018-02-27T07:39:00.103Z,-3.07
2018-02-27T07:40:00.065Z,-3.01
2018-02-27T07:41:00.753Z,-2.88
2018-02-27T07:41:59.982Z,-2.58
2018-02-27T07:42:59.942Z,-2.48
2018-02-27T07:43:59.926Z,-2.41
2018-02-27T07:44:59.865Z,-2.30
2018-02-27T07:45:59.825Z,-2.37
2018-02-27T07:46:59.786Z,-2.40
2018-02-27T07:47:59.747Z,-2.48
2018-02-27T07:48:59.710Z,-2.41
2018-02-27T07:49:59.668Z,-2.25
2018-02-27T07:50:59.631Z,-2.34
2018-02-27T07:51:59.594Z,-2.05
2018-02-27T07:52:59.553Z,-1.97
2018-02-27T07:53:59.515Z,-1.95
2018-02-27T07:54:59.474Z,-2.04
2018-02-27T07:55:59.438Z,-1.84
2018-02-27T07:56:59.401Z,-1.98
2018-02-27T07:57:59.385Z,-2.02
2018-02-27T07:58:59.323Z,-2.19
2018-02-27T07:59:59.284Z,-1.90
2018-02-27T08:00:59.248Z,-1.98
2018-02-27T08:01:59.212Z,-1.98
2018-02-27T08:02:59.171Z,-1.87
2018-02-27T08:03:59.191Z,-1.72
2018-02-27T08:04:59.098Z,-1.66
2018-02-27T08:05:59.060Z,-1.37
2018-02-27T08:06:59.022Z,-1.43
2018-02-27T08:07:58.985Z,-1.14
2018-02-27T08:08:58.951Z,-1.20
2018-02-27T08:09:58.911Z,-1.05
2018-02-27T08:10:58.875Z,-1.07
2018-02-27T08:11:58.839Z,-0.80
2018-02-27T08:12:58.806Z,-0.49
2018-02-27T08:13:58.765Z,-0.20
2018-02-27T08:14:58.730Z,-0.17
2018-02-27T08:15:58.695Z,0.04
2018-02-27T08:16:58.659Z,0.19
2018-02-27T08:17:58.634Z,-0.08
2018-02-27T08:18:58.589Z,0.32
2018-02-27T08:19:58.556Z,0.50
2018-02-27T08:20:58.515Z,0.32
2018-02-27T08:21:58.507Z,0.32
2018-02-27T08:22:58.474Z,0.34
2018-02-27T08:23:58.413Z,0.16
2018-02-27T08:24:58.377Z,0.40
2018-02-27T08:25:58.344Z,0.62
2018-02-27T08:26:58.310Z,0.99
2018-02-27T08:27:58.273Z,0.91
2018-02-27T08:28:58.241Z,1.20
2018-02-27T08:29:58.207Z,1.23
2018-02-27T08:30:58.172Z,1.23
2018-02-27T08:31:58.140Z,1.32
2018-02-27T08:32:58.103Z,1.30
2018-02-27T08:33:58.072Z,1.34
2018-02-27T08:34:58.035Z,1.06
2018-02-27T08:35:58.008Z,1.14
2018-02-27T08:36:57.973Z,0.91
2018-02-27T08:37:57.942Z,1.14
2018-02-27T08:38:57.902Z,0.87
2018-02-27T08:39:57.870Z,0.73
2018-02-27T08:40:57.837Z,0.76
2018-02-27T08:41:57.810Z,0.74
2018-02-27T08:42:57.769Z,1.26
2018-02-27T08:43:57.738Z,1.52
2018-02-27T08:44:57.707Z,1.02
2018-02-27T08:45:57.672Z,0.98
2018-02-27T08:46:57.642Z,1.10
2018-02-27T08:47:57.611Z,1.12
2018-02-27T08:48:57.578Z,1.52
2018-02-27T08:49:57.543Z,1.55
2018-02-27T08:50:57.519Z,1.58
2018-02-27T08:51:57.478Z,1.97
2018-02-27T08:52:57.445Z,2.04
2018-02-27T08:53:57.413Z,2.14
2018-02-27T08:54:57.381Z,1.88
2018-02-27T08:55:57.348Z,2.25
2018-02-27T08:56:57.317Z,2.36
2018-02-27T08:57:57.283Z,2.46
2018-02-27T08:58:57.252Z,2.51
2018-02-27T08:59:57.222Z,2.62
2018-02-27T09:00:57.188Z,2.60
2018-02-27T09:01:57.158Z,2.82
2018-02-27T09:02:57.124Z,2.65
2018-02-27T09:03:57.094Z,3.10
2018-02-27T09:04:57.062Z,3.01
2018-02-27T09:05:57.065Z,2.62
2018-02-27T09:06:57.005Z,2.53
2018-02-27T09:07:56.970Z,2.98
2018-02-27T09:08:56.938Z,3.11
2018-02-27T09:09:56.907Z,3.01
2018-02-27T09:10:56.875Z,3.45
2018-02-27T09:11:56.844Z,3.51
2018-02-27T09:12:56.811Z,3.22
2018-02-27T09:13:56.785Z,2.62
2018-02-27T09:14:56.752Z,2.62
2018-02-27T09:15:56.723Z,2.47
2018-02-27T09:16:56.693Z,2.79
2018-02-27T09:17:56.663Z,3.47
2018-02-27T09:18:56.636Z,3.45
2018-02-27T09:19:56.603Z,3.81
2018-02-27T09:20:56.572Z,3.84
2018-02-27T09:21:56.542Z,4.12
2018-02-27T09:22:56.510Z,3.81
2018-02-27T09:23:56.482Z,2.98
2018-02-27T09:24:56.453Z,3.10
2018-02-27T09:25:56.421Z,3.94
2018-02-27T09:26:56.402Z,3.98
2018-02-27T09:27:56.377Z,3.55
2018-02-27T09:28:56.333Z,4.01
2018-02-27T09:29:56.303Z,4.63
2018-02-27T09:30:56.274Z,4.62
2018-02-27T09:31:56.243Z,4.67
2018-02-27T09:32:56.214Z,4.34
2018-02-27T09:33:56.190Z,4.55
2018-02-27T09:34:56.184Z,4.35
2018-02-27T09:35:56.129Z,4.22
2018-02-27T09:36:56.100Z,4.16
2018-02-27T09:37:56.071Z,4.59
2018-02-27T09:38:56.041Z,4.82
2018-02-27T09:39:56.012Z,4.55
2018-02-27T09:40:55.986Z,4.75
2018-02-27T09:41:55.957Z,5.23
2018-02-27T09:42:55.925Z,5.14
2018-02-27T09:43:55.899Z,4.86
2018-02-27T09:44:55.866Z,5.20
2018-02-27T09:45:55.892Z,4.87
2018-02-27T09:46:55.809Z,4.40
2018-02-27T09:47:55.782Z,4.60
2018-02-27T09:48:55.753Z,4.05
2018-02-27T09:49:55.725Z,4.68
2018-02-27T09:50:55.696Z,5.12
2018-02-27T09:51:55.664Z,5.61
2018-02-27T09:52:55.646Z,5.75
2018-02-27T09:53:55.607Z,5.97
2018-02-27T09:54:55.578Z,5.99
2018-02-27T09:55:55.552Z,5.33
2018-02-27T09:56:55.521Z,5.39
2018-02-27T09:57:55.499Z,5.53
2018-02-27T09:58:55.466Z,5.86
2018-02-27T09:59:55.434Z,5.18
2018-02-27T10:00:55.406Z,5.02
2018-02-27T10:01:55.397Z,4.84
2018-02-27T10:02:55.352Z,4.87
2018-02-27T10:03:55.321Z,5.17
2018-02-27T10:04:55.292Z,5.32
2018-02-27T10:05:55.266Z,4.86
2018-02-27T10:06:55.236Z,5.33
2018-02-27T10:07:55.209Z,5.51
2018-02-27T10:08:55.188Z,5.48
2018-02-27T10:09:55.154Z,5.10
2018-02-27T10:10:55.123Z,4.97
2018-02-27T10:11:55.094Z,4.89
2018-02-27T10:12:55.068Z,5.83
2018-02-27T10:13:55.039Z,6.31
2018-02-27T10:14:55.011Z,5.44
2018-02-27T10:15:54.984Z,5.84
2018-02-27T10:16:54.956Z,5.62
2018-02-27T10:17:54.929Z,6.64
2018-02-27T10:18:54.897Z,6.46
2018-02-27T10:19:54.872Z,6.48
2018-02-27T10:20:54.841Z,6.26
2018-02-27T10:21:54.825Z,5.72
2018-02-27T10:22:54.787Z,5.68
2018-02-27T10:23:54.757Z,5.12
2018-02-27T10:24:54.732Z,5.00
2018-02-27T10:25:54.703Z,4.94
2018-02-27T10:26:54.695Z,5.11
2018-02-27T10:27:54.648Z,5.14
2018-02-27T10:28:54.622Z,5.00
2018-02-27T10:29:54.592Z,6.04
2018-02-27T10:30:54.585Z,6.05
2018-02-27T10:31:54.536Z,6.02
2018-02-27T10:32:54.509Z,6.22
2018-02-27T10:33:54.480Z,6.05
2018-02-27T10:34:54.456Z,6.62
2018-02-27T10:35:54.463Z,7.32
2018-02-27T10:36:54.400Z,6.30
2018-02-27T10:37:54.373Z,6.82
2018-02-27T10:38:54.347Z,7.58
2018-02-27T10:39:54.318Z,7.48
2018-02-27T10:40:54.291Z,7.50
2018-02-27T10:41:54.267Z,7.53
2018-02-27T10:42:54.238Z,7.38
2018-02-27T10:43:54.212Z,7.63
2018-02-27T10:44:54.187Z,7.47
2018-02-27T10:45:54.158Z,8.01
2018-02-27T10:46:54.135Z,8.01
2018-02-27T10:47:54.115Z,8.06
2018-02-27T10:48:54.081Z,6.77
2018-02-27T10:49:54.056Z,6.09
2018-02-27T10:50:54.030Z,6.09
2018-02-27T10:51:54.007Z,5.69
2018-02-27T10:52:53.982Z,6.75
2018-02-27T10:53:53.986Z,6.75
2018-02-27T10:54:53.958Z,6.87
2018-02-27T10:55:53.903Z,7.79
2018-02-27T10:56:53.889Z,8.24
2018-02-27T10:57:53.864Z,8.33
2018-02-27T10:58:53.823Z,8.06
2018-02-27T10:59:53.802Z,8.05
2018-02-27T11:00:53.770Z,8.28
2018-02-27T11:01:53.778Z,8.30
2018-02-27T11:02:53.722Z,8.00
2018-02-27T11:03:53.700Z,8.37
2018-02-27T11:04:53.668Z,8.34
2018-02-27T11:05:53.649Z,8.48
2018-02-27T11:06:53.633Z,7.80
2018-02-27T11:07:53.592Z,7.25
2018-02-27T11:08:53.577Z,6.36
2018-02-27T11:09:53.594Z,6.51
2018-02-27T11:10:53.517Z,7.72
2018-02-27T11:11:53.491Z,7.56
2018-02-27T11:12:53.460Z,8.18
2018-02-27T11:13:53.434Z,8.67
2018-02-27T11:14:53.406Z,9.31
2018-02-27T11:15:53.381Z,9.26
2018-02-27T11:16:53.368Z,9.28
2018-02-27T11:17:53.346Z,10.10
2018-02-27T11:18:53.304Z,10.37
2018-02-27T11:19:53.313Z,9.73
2018-02-27T11:20:53.250Z,9.04
2018-02-27T11:21:53.223Z,8.56
2018-02-27T11:22:53.197Z,9.74
2018-02-27T11:23:53.178Z,9.47
2018-02-27T11:24:53.147Z,9.40
2018-02-27T11:25:53.124Z,9.56
2018-02-27T11:26:53.098Z,9.39
2018-02-27T11:27:53.071Z,9.54
2018-02-27T11:28:53.051Z,9.58
2018-02-27T11:29:53.021Z,10.12
2018-02-27T11:30:52.995Z,9.28
2018-02-27T11:31:52.970Z,9.08
2018-02-27T11:32:52.946Z,9.08
2018-02-27T11:33:52.920Z,9.28
2018-02-27T11:34:52.895Z,8.36
2018-02-27T11:35:52.868Z,8.70
2018-02-27T11:36:52.843Z,9.47
2018-02-27T11:37:52.855Z,9.69
2018-02-27T11:38:52.793Z,9.02
2018-02-27T11:39:52.765Z,9.40
2018-02-27T11:40:52.741Z,10.33
2018-02-27T11:41:52.735Z,10.15
2018-02-27T11:42:52.694Z,9.48
2018-02-27T11:43:52.665Z,8.91
2018-02-27T11:44:52.638Z,7.88
2018-02-27T11:45:52.612Z,7.33
2018-02-27T11:46:52.583Z,8.18
2018-02-27T11:47:52.558Z,8.71
2018-02-27T11:48:53.455Z,9.02
2018-02-27T11:49:52.509Z,9.21
2018-02-27T11:50:52.480Z,9.34
2018-02-27T11:51:52.456Z,10.01
2018-02-27T11:52:52.431Z,9.83
2018-02-27T11:53:52.405Z,9.92
2018-02-27T11:54:52.385Z,9.95
2018-02-27T11:55:52.355Z,10.25
2018-02-27T11:56:52.332Z,9.58
2018-02-27T11:57:52.307Z,10.16
2018-02-27T11:58:52.282Z,10.19
2018-02-27T11:59:52.257Z,9.68
2018-02-27T12:00:52.232Z,10.48
2018-02-27T12:01:52.206Z,10.17
2018-02-27T12:02:52.183Z,9.34
2018-02-27T12:03:52.164Z,10.78
2018-02-27T12:04:52.129Z,10.86
2018-02-27T12:05:52.107Z,10.38
2018-02-27T12:06:52.083Z,9.97
2018-02-27T12:07:52.058Z,10.84
2018-02-27T12:08:52.037Z,10.17
2018-02-27T12:09:52.009Z,9.95
2018-02-27T12:10:51.990Z,10.37
2018-02-27T12:11:51.963Z,10.75
2018-02-27T12:12:51.940Z,10.89
2018-02-27T12:13:51.914Z,11.19
2018-02-27T12:14:51.889Z,11.33
2018-02-27T12:15:51.869Z,11.57
2018-02-27T12:16:51.841Z,11.33
2018-02-27T12:17:51.834Z,10.28
2018-02-27T12:18:51.792Z,10.10
2018-02-27T12:19:51.768Z,9.95
2018-02-27T12:20:51.745Z,10.16
2018-02-27T12:21:51.719Z,10.59
2018-02-27T12:22:51.694Z,10.76
2018-02-27T12:23:51.669Z,10.35
2018-02-27T12:24:51.646Z,10.84
2018-02-27T12:25:51.651Z,11.41
2018-02-27T12:26:51.593Z,12.32
2018-02-27T12:27:51.572Z,10.87
2018-02-27T12:28:51.550Z,10.20
2018-02-27T12:29:51.529Z,11.11
2018-02-27T12:30:51.720Z,10.71
2018-02-27T12:31:51.475Z,11.29
2018-02-27T12:32:51.498Z,11.45
2018-02-27T12:33:51.430Z,11.29
2018-02-27T12:34:51.408Z,10.23
2018-02-27T12:35:51.376Z,11.29
2018-02-27T12:36:51.356Z,10.51
2018-02-27T12:37:51.334Z,10.20
2018-02-27T12:38:51.308Z,8.73
2018-02-27T12:39:51.282Z,7.47
2018-02-27T12:40:51.270Z,7.03
2018-02-27T12:41:51.235Z,6.01
2018-02-27T12:42:51.207Z,5.02
2018-02-27T12:43:51.184Z,5.26
2018-02-27T12:44:51.156Z,5.17
2018-02-27T12:45:51.186Z,5.35
2018-02-27T12:46:51.100Z,5.46
2018-02-27T12:47:51.072Z,5.50
2018-02-27T12:48:51.040Z,5.80
2018-02-27T12:49:51.012Z,5.83
2018-02-27T12:50:50.988Z,6.19
2018-02-27T12:51:50.948Z,6.95
2018-02-27T12:52:50.920Z,7.61
2018-02-27T12:53:50.886Z,8.38
2018-02-27T12:54:50.850Z,8.37
2018-02-27T12:55:50.818Z,8.79
2018-02-27T12:56:50.789Z,9.55
2018-02-27T12:57:50.761Z,9.43
2018-02-27T12:58:50.725Z,9.37
2018-02-27T12:59:50.692Z,9.98